This is the latest recevied weather packets stored in our database for station/object LKCS. If no packets are shown the sender has not sent any weather packets the latest 10 day(s).
| Time | Temp. | Humidity | Pressure | Rain* | Wind** | Luminosity | Snow |
|---|---|---|---|---|---|---|---|
| 1777379559 | 17.78° C | 27% | 1019 hPa | - | - | - | - |
| 1777377792 | 17.22° C | 27% | 1019 hPa | - | - | - | - |
| 1777375985 | 17.22° C | 27% | 1020 hPa | - | - | - | - |
| 1777374194 | 17.22° C | 25% | 1020 hPa | - | - | - | - |
| 1777372358 | 17.22° C | 31% | 1020 hPa | - | - | - | - |
| 1777370594 | 15° C | 35% | 1020 hPa | - | - | - | - |
| 1777368785 | 15° C | 35% | 1020 hPa | - | - | - | - |
| 1777366992 | 13.89° C | 38% | 1020 hPa | - | - | - | - |
| 1777365185 | 12.78° C | 40% | 1020 hPa | - | - | - | - |
| 1777363367 | 12.22° C | 46% | 1020 hPa | - | - | - | - |
| 1777361586 | 10° C | 49% | 1020 hPa | - | - | - | - |
| 1777359794 | 8.89° C | 66% | 1021 hPa | - | - | - | - |
| 1777357985 | 7.22° C | 70% | 1020 hPa | - | - | - | - |
| 1777356166 | 5° C | 75% | 1021 hPa | - | - | - | - |
| 1777354385 | 5° C | 75% | 1020 hPa | - | - | - | - |
| 1777352575 | 2.78° C | 80% | 1020 hPa | - | - | - | - |
| 1777350786 | 2.22° C | 80% | 1020 hPa | - | - | - | - |
| 1777348994 | 2.22° C | 80% | 1020 hPa | - | - | - | - |
| 1777347150 | 2.22° C | 80% | 1020 hPa | - | - | - | - |
| 1777345362 | 2.78° C | 74% | 1020 hPa | - | - | - | - |
| 1777343585 | 2.78° C | 69% | 1020 hPa | - | - | - | - |
| 1777341766 | 2.78° C | 74% | 1020 hPa | - | - | - | - |
| 1777339985 | 2.78° C | 69% | 1020 hPa | - | - | - | - |
| 1777338168 | 2.78° C | 69% | 1020 hPa | - | - | - | - |
| 1777336385 | 3.89° C | 69% | 1020 hPa | - | - | - | - |
* Rain since midnight (hover to see other rain measurements)
** Current wind speed in m/s (hover to see current wind gust speed)